Time;durP1;ratioP1;P1;durP2;ratioP2;P2;SDS_P1;SDS_P2;PMS_P1;PMS_P2;Temp;Humidity;BMP_temperature;BMP_pressure;BME280_temperature;BME280_humidity;BME280_pressure;Samples;Min_cycle;Max_cycle;Signal;HPM_P1;HPM_P2
2024/01/28 00:00:58;;;;;;;15.82;6.50;;;;;;;4.77;83.42;103190.03;5013605;28;20112;-83
2024/01/28 00:03:24;;;;;;;16.48;5.93;;;;;;;4.76;83.66;103195.19;5013598;28;20089;-82
2024/01/28 00:05:51;;;;;;;16.42;6.03;;;;;;;4.70;83.39;103190.38;4995672;28;20216;-83
2024/01/28 00:08:17;;;;;;;14.98;6.60;;;;;;;4.60;83.68;103172.22;5013684;28;20037;-84
2024/01/28 00:10:42;;;;;;;15.70;6.63;;;;;;;4.60;83.59;103164.34;5013280;28;20030;-84
2024/01/28 00:13:08;;;;;;;15.95;6.15;;;;;;;4.53;83.99;103143.75;5013579;28;20398;-84
2024/01/28 00:15:33;;;;;;;11.68;6.18;;;;;;;4.62;83.52;103175.84;4996057;28;20069;-84
2024/01/28 00:17:58;;;;;;;13.52;6.05;;;;;;;4.56;84.70;103166.63;5013596;28;20431;-85
2024/01/28 00:20:24;;;;;;;14.43;6.35;;;;;;;4.44;84.15;103161.41;5013537;28;20034;-84
2024/01/28 00:22:49;;;;;;;14.27;6.47;;;;;;;4.29;85.36;103144.63;4995657;28;20038;-84
2024/01/28 00:25:16;;;;;;;16.63;6.72;;;;;;;4.29;85.19;103131.53;5013338;28;20455;-84
2024/01/28 00:27:41;;;;;;;16.88;5.97;;;;;;;4.53;84.98;103156.84;5013413;28;20122;-85
2024/01/28 00:30:08;;;;;;;15.52;5.97;;;;;;;4.59;85.14;103162.53;5013700;28;20061;-85
2024/01/28 00:32:34;;;;;;;16.55;6.18;;;;;;;4.48;85.14;103153.91;5013363;28;20041;-85
2024/01/28 00:34:59;;;;;;;15.93;6.10;;;;;;;4.43;85.96;103164.84;5013495;28;20030;-84
2024/01/28 00:37:24;;;;;;;12.50;6.57;;;;;;;4.44;85.83;103164.03;5013107;28;20092;-84
2024/01/28 00:39:50;;;;;;;13.57;6.22;;;;;;;4.51;85.86;103171.53;5013132;28;20044;-84
2024/01/28 00:42:16;;;;;;;15.88;6.45;;;;;;;4.48;85.40;103146.03;5016256;28;20373;-84
2024/01/28 00:44:41;;;;;;;18.00;6.65;;;;;;;4.32;84.67;103110.78;5017334;28;20520;-84
2024/01/28 00:47:06;;;;;;;12.13;6.03;;;;;;;4.56;86.26;103132.59;4999510;28;20034;-85
2024/01/28 00:49:32;;;;;;;12.93;6.38;;;;;;;4.53;84.27;103152.50;5017348;28;20034;-85
2024/01/28 00:51:58;;;;;;;18.55;6.60;;;;;;;4.41;84.90;103142.84;5017439;28;20034;-85
2024/01/28 00:54:24;;;;;;;14.45;7.03;;;;;;;4.26;84.77;103124.34;5017202;28;20034;-85
2024/01/28 00:56:52;;;;;;;15.25;6.60;;;;;;;4.40;84.90;103130.56;5017061;28;20049;-84
2024/01/28 00:59:18;;;;;;;13.82;6.25;;;;;;;4.51;85.44;103127.03;5017294;28;20038;-84
2024/01/28 01:01:43;;;;;;;16.58;6.55;;;;;;;4.45;84.50;103117.06;5017129;28;20168;-84
2024/01/28 01:04:09;;;;;;;14.85;6.70;;;;;;;4.42;84.60;103118.53;5016970;28;20105;-85
2024/01/28 01:06:34;;;;;;;20.70;6.68;;;;;;;4.36;85.07;103126.81;5017123;28;20050;-85
2024/01/28 01:08:59;;;;;;;18.27;6.90;;;;;;;4.09;85.16;103106.50;5016989;28;20034;-85
2024/01/28 01:11:25;;;;;;;15.57;6.53;;;;;;;4.11;86.19;103126.78;5016575;28;20030;-85
2024/01/28 01:13:51;;;;;;;14.82;6.80;;;;;;;3.81;85.98;103062.63;5016916;28;20488;-84
2024/01/28 01:16:17;;;;;;;14.80;6.85;;;;;;;3.98;86.72;103097.84;5016743;28;20112;-84
2024/01/28 01:18:43;;;;;;;12.57;6.68;;;;;;;4.01;85.93;103117.31;5016737;28;20478;-84
2024/01/28 01:21:08;;;;;;;16.80;6.70;;;;;;;3.86;86.69;103108.34;5016677;28;20394;-85
2024/01/28 01:23:33;;;;;;;14.80;6.40;;;;;;;3.66;87.40;103095.50;5016662;28;20093;-85
2024/01/28 01:25:59;;;;;;;13.57;6.50;;;;;;;3.64;87.43;103100.63;5016471;28;20457;-85
2024/01/28 01:28:31;;;;;;;17.25;6.40;;;;;;;3.76;88.09;103117.19;5016648;28;20459;-85
2024/01/28 01:30:57;;;;;;;15.70;6.63;;;;;;;3.71;87.00;103095.03;5016274;28;20037;-86
2024/01/28 01:33:22;;;;;;;14.30;6.50;;;;;;;3.91;87.73;103113.91;5016483;28;20485;-85
2024/01/28 01:35:48;;;;;;;15.63;6.40;;;;;;;3.98;86.70;103108.31;5016440;28;20037;-85
2024/01/28 01:38:14;;;;;;;16.27;6.55;;;;;;;3.89;85.77;103081.50;4998774;28;20038;-85
2024/01/28 01:40:39;;;;;;;13.88;6.65;;;;;;;3.90;85.65;103096.41;5016402;28;20033;-85
2024/01/28 01:43:11;;;;;;;17.05;6.93;;;;;;;3.81;86.73;103104.44;5016279;28;20034;-85
2024/01/28 01:45:42;;;;;;;15.23;6.55;;;;;;;3.64;87.02;103094.44;5016207;28;20041;-85
2024/01/28 01:48:11;;;;;;;16.73;7.33;;;;;;;3.57;87.75;103097.41;5015999;28;20041;-86
2024/01/28 01:50:38;;;;;;;25.10;8.73;;;;;;;3.50;88.07;103101.25;5015737;28;20030;-85
2024/01/28 01:53:08;;;;;;;23.58;9.68;;;;;;;3.43;87.95;103101.59;4997013;28;20489;-85
2024/01/28 01:55:35;;;;;;;22.52;8.93;;;;;;;3.50;88.07;103112.63;5015941;28;20463;-85
2024/01/28 01:58:01;;;;;;;23.05;8.57;;;;;;;3.42;87.62;103103.28;5016066;28;20092;-84
2024/01/28 02:00:28;;;;;;;17.25;7.90;;;;;;;3.46;87.87;103117.50;5015972;28;20454;-85
2024/01/28 02:02:53;;;;;;;18.25;7.00;;;;;;;3.47;88.41;103116.72;5015963;28;20044;-84
2024/01/28 02:05:19;;;;;;;17.60;7.20;;;;;;;3.43;88.05;103094.69;5015729;28;20046;-85
2024/01/28 02:07:44;;;;;;;17.30;6.85;;;;;;;3.62;87.85;103114.34;5015939;28;20062;-84
2024/01/28 02:10:10;;;;;;;18.88;7.32;;;;;;;3.60;86.61;103101.19;5015809;28;20109;-85
2024/01/28 02:12:36;;;;;;;14.15;6.72;;;;;;;3.61;85.71;103104.69;5015421;28;20038;-85
2024/01/28 02:15:11;;;;;;;13.88;6.40;;;;;;;3.70;86.85;103114.13;5015779;28;20458;-85
2024/01/28 02:17:37;;;;;;;18.58;7.35;;;;;;;3.71;86.84;103108.09;5015674;28;20034;-85
2024/01/28 02:20:04;;;;;;;14.35;6.55;;;;;;;3.66;86.07;103082.41;5015913;28;20034;-85
2024/01/28 02:22:29;;;;;;;16.50;6.50;;;;;;;3.87;85.90;103109.25;5015235;28;20133;-85
2024/01/28 02:24:55;;;;;;;15.27;6.75;;;;;;;3.79;86.17;103081.63;5015411;28;20109;-85
2024/01/28 02:27:20;;;;;;;15.20;6.53;;;;;;;3.88;85.42;103085.81;5014972;28;20046;-85
2024/01/28 02:29:45;;;;;;;14.13;6.35;;;;;;;3.94;85.07;103090.56;5015510;28;20034;-85
2024/01/28 02:32:12;;;;;;;14.45;6.63;;;;;;;3.79;85.36;103052.84;5015029;28;20045;-85
2024/01/28 02:34:38;;;;;;;19.15;6.68;;;;;;;3.95;85.61;103076.72;5015420;28;20026;-85
2024/01/28 02:37:03;;;;;;;12.68;6.32;;;;;;;3.90;85.83;103063.31;5015081;28;20034;-84
2024/01/28 02:39:29;;;;;;;14.13;6.85;;;;;;;3.88;85.37;103069.22;5015265;28;20092;-84
2024/01/28 02:41:54;;;;;;;15.77;6.38;;;;;;;3.75;85.29;103068.31;5015297;28;20093;-86
2024/01/28 02:44:20;;;;;;;15.85;5.95;;;;;;;3.70;86.14;103060.94;4997690;28;20038;-85
2024/01/28 02:46:45;;;;;;;14.45;5.50;;;;;;;3.62;86.54;103055.13;5015188;28;20033;-84
2024/01/28 02:49:11;;;;;;;12.73;5.75;;;;;;;3.56;86.89;103031.16;5015117;28;20061;-85
2024/01/28 02:51:36;;;;;;;10.85;4.95;;;;;;;3.75;87.17;103054.34;5014821;28;20100;-84
2024/01/28 02:54:02;;;;;;;12.73;5.45;;;;;;;3.78;87.29;103056.28;4997257;28;20425;-84
2024/01/28 02:56:27;;;;;;;16.55;5.68;;;;;;;3.79;85.54;103056.38;5014628;28;20026;-84
2024/01/28 02:58:54;;;;;;;12.23;5.70;;;;;;;3.69;86.04;103039.13;5014748;28;20064;-85
2024/01/28 03:01:19;;;;;;;14.95;5.78;;;;;;;3.76;85.50;103050.91;5014738;28;20046;-84
2024/01/28 03:03:45;;;;;;;16.23;5.90;;;;;;;3.74;85.86;103048.19;5014285;28;20053;-86
2024/01/28 03:06:10;;;;;;;14.30;5.93;;;;;;;3.62;85.95;103026.38;5014198;28;20406;-84
2024/01/28 03:08:36;;;;;;;12.55;5.65;;;;;;;3.73;85.68;103054.22;5014787;28;20042;-84
2024/01/28 03:11:01;;;;;;;13.13;5.28;;;;;;;3.69;85.36;103044.34;4996806;28;20038;-84
2024/01/28 03:13:26;;;;;;;11.75;5.45;;;;;;;3.65;85.75;103037.06;4996932;28;20057;-85
2024/01/28 03:15:54;;;;;;;12.85;5.88;;;;;;;3.71;85.58;103044.44;5014325;28;20483;-84
2024/01/28 03:18:21;;;;;;;13.05;5.72;;;;;;;3.71;85.31;103037.50;5014353;28;20100;-85
2024/01/28 03:20:46;;;;;;;15.82;5.68;;;;;;;3.67;85.55;103029.31;5014064;28;20030;-84
2024/01/28 03:23:12;;;;;;;13.40;5.55;;;;;;;3.63;85.83;103015.09;5014331;28;20045;-84
2024/01/28 03:25:37;;;;;;;15.05;5.70;;;;;;;3.75;85.52;103028.19;4996449;28;20038;-84
2024/01/28 03:28:03;;;;;;;13.57;5.93;;;;;;;3.47;85.20;102996.50;5014150;28;20505;-84
2024/01/28 03:30:29;;;;;;;14.88;5.78;;;;;;;3.36;85.80;102993.09;5014192;28;20467;-84
2024/01/28 03:32:54;;;;;;;13.48;5.70;;;;;;;3.55;86.32;103033.63;5013700;28;20372;-84
2024/01/28 03:35:19;;;;;;;13.15;5.68;;;;;;;3.57;86.33;103030.34;5014115;28;20033;-85
2024/01/28 03:37:46;;;;;;;15.05;6.07;;;;;;;3.61;85.93;103031.50;5013997;28;20037;-84
2024/01/28 03:40:12;;;;;;;11.90;5.40;;;;;;;3.51;85.26;103017.75;5014294;28;20088;-84
2024/01/28 03:42:37;;;;;;;18.58;5.72;;;;;;;3.57;85.65;103032.97;5013833;28;20135;-84
2024/01/28 03:45:03;;;;;;;13.02;6.30;;;;;;;3.45;86.00;103017.28;4996504;28;20046;-84
2024/01/28 03:47:29;;;;;;;14.48;5.72;;;;;;;3.56;85.12;103031.16;5013920;28;20034;-84
2024/01/28 03:49:54;;;;;;;12.68;5.65;;;;;;;3.45;85.45;103014.66;5013874;28;20033;-84
2024/01/28 03:52:20;;;;;;;15.50;5.40;;;;;;;3.59;85.64;103028.75;5013507;28;20060;-85
2024/01/28 03:54:45;;;;;;;15.70;5.35;;;;;;;3.59;85.72;103030.47;5013661;28;20030;-84
2024/01/28 03:57:10;;;;;;;15.45;6.05;;;;;;;3.39;85.50;102985.47;5013739;28;20046;-84
2024/01/28 03:59:39;;;;;;;15.90;5.57;;;;;;;3.56;85.25;103015.47;5016229;28;20038;-94
2024/01/28 04:02:05;;;;;;;10.95;5.63;;;;;;;3.50;85.86;103017.63;5028525;28;20034;-94
2024/01/28 04:04:30;;;;;;;14.32;5.53;;;;;;;3.41;85.68;103001.25;5027824;28;20038;-93
2024/01/28 04:06:55;;;;;;;11.25;5.13;;;;;;;3.37;85.84;103007.94;5019412;28;20080;-92
2024/01/28 04:09:21;;;;;;;13.43;6.03;;;;;;;3.32;85.91;102998.88;5036570;28;20022;-93
2024/01/28 04:11:46;;;;;;;14.82;5.78;;;;;;;3.37;85.77;103009.66;5038451;28;20021;-93
2024/01/28 04:14:12;;;;;;;12.82;5.15;;;;;;;3.33;85.79;103013.75;5021093;28;20053;-95
2024/01/28 04:16:37;;;;;;;12.05;5.18;;;;;;;3.32;86.84;103013.63;4998219;28;20042;-94
2024/01/28 04:19:02;;;;;;;12.32;5.15;;;;;;;3.20;86.38;103017.13;5015668;28;20108;-93
2024/01/28 04:21:29;;;;;;;15.52;5.90;;;;;;;3.05;86.43;103015.09;5015316;28;20033;-93
2024/01/28 04:23:56;;;;;;;11.43;5.47;;;;;;;3.02;86.99;103010.53;5014629;28;20030;-94
2024/01/28 04:26:22;;;;;;;11.55;5.68;;;;;;;3.00;86.99;103005.22;5014394;28;20056;-93
2024/01/28 04:28:47;;;;;;;12.20;5.57;;;;;;;2.94;87.11;102988.16;5014533;28;20475;-92
2024/01/28 04:31:13;;;;;;;12.15;5.53;;;;;;;3.01;87.03;102993.06;5014661;28;20111;-93
2024/01/28 04:33:39;;;;;;;12.88;5.28;;;;;;;3.07;87.34;103003.03;5014911;28;20041;-92
2024/01/28 04:36:05;;;;;;;13.70;5.30;;;;;;;2.94;87.23;102978.59;5014329;28;20026;-94
2024/01/28 04:38:31;;;;;;;11.95;5.25;;;;;;;2.96;87.09;102974.44;4997547;28;20126;-94
2024/01/28 04:40:56;;;;;;;17.15;5.65;;;;;;;3.05;87.15;102994.19;5014701;28;20052;-94
2024/01/28 04:43:22;;;;;;;15.20;5.88;;;;;;;2.94;87.21;102977.69;5014163;28;20497;-94
2024/01/28 04:45:48;;;;;;;14.60;5.50;;;;;;;2.94;87.47;102970.78;4980728;28;20030;-94
2024/01/28 04:48:13;;;;;;;14.50;5.50;;;;;;;3.01;87.17;102987.84;5014357;28;20034;-93
2024/01/28 04:50:39;;;;;;;11.07;5.18;;;;;;;3.01;87.36;102978.28;4996471;28;20034;-93
2024/01/28 04:53:04;;;;;;;13.68;5.38;;;;;;;3.02;87.43;102976.59;5014620;28;20501;-93
2024/01/28 04:55:29;;;;;;;16.02;6.72;;;;;;;3.00;87.46;102973.88;5014775;28;20459;-93
2024/01/28 04:57:55;;;;;;;14.98;5.25;;;;;;;2.97;87.51;102970.09;4996901;28;20034;-93
2024/01/28 05:00:20;;;;;;;16.15;5.70;;;;;;;2.93;87.58;102962.84;5013793;28;20034;-93
2024/01/28 05:02:46;;;;;;;12.25;5.25;;;;;;;2.85;87.64;102958.72;4980235;28;20038;-93
2024/01/28 05:05:12;;;;;;;9.82;5.05;;;;;;;2.81;87.04;102952.38;5014105;28;20458;-93
2024/01/28 05:07:37;;;;;;;14.25;5.53;;;;;;;2.65;87.04;102945.06;5013526;28;20529;-93
2024/01/28 05:10:03;;;;;;;15.52;5.00;;;;;;;2.75;88.39;102971.09;5013871;28;20229;-94
2024/01/28 05:12:28;;;;;;;13.35;5.30;;;;;;;2.60;88.28;102942.91;5014092;28;20041;-93
2024/01/28 05:14:54;;;;;;;9.82;4.82;;;;;;;2.70;88.64;102975.06;5014242;28;20030;-93
2024/01/28 05:17:19;;;;;;;12.90;5.15;;;;;;;2.66;88.11;102959.03;5014235;28;20494;-93
2024/01/28 05:19:45;;;;;;;10.70;5.28;;;;;;;2.65;88.75;102958.09;5013519;28;20096;-94
2024/01/28 05:22:11;;;;;;;14.43;5.38;;;;;;;2.72;88.60;102964.72;5014186;28;20459;-94
2024/01/28 05:24:36;;;;;;;11.18;5.45;;;;;;;2.62;88.23;102955.28;5013639;28;20030;-93
2024/01/28 05:27:02;;;;;;;16.33;5.00;;;;;;;2.60;88.32;102953.34;5015517;28;20068;-91
2024/01/28 05:29:28;;;;;;;11.73;5.30;;;;;;;2.66;89.52;102961.66;4987387;28;20407;-92
2024/01/28 05:31:53;;;;;;;12.88;4.97;;;;;;;2.64;89.07;102956.28;5019847;28;20117;-93
2024/01/28 05:34:19;;;;;;;12.75;5.20;;;;;;;2.58;89.42;102941.88;5020167;28;20088;-93
2024/01/28 05:36:50;;;;;;;12.32;5.63;;;;;;;2.56;88.67;102948.66;5021817;28;20041;-94
2024/01/28 05:39:17;;;;;;;12.45;4.78;;;;;;;2.55;90.47;102946.84;5035919;28;20018;-92
2024/01/28 05:41:43;;;;;;;12.48;4.78;;;;;;;2.53;90.57;102944.16;5038187;28;20054;-92
2024/01/28 05:44:08;;;;;;;12.90;5.15;;;;;;;2.51;89.43;102938.78;5040722;28;20044;-91
2024/01/28 05:46:34;;;;;;;13.82;5.40;;;;;;;2.41;89.35;102925.84;5033537;28;20014;-91
2024/01/28 05:48:59;;;;;;;11.45;5.15;;;;;;;2.47;89.74;102930.59;5021567;28;20459;-91
2024/01/28 05:51:26;;;;;;;14.52;5.10;;;;;;;2.54;89.45;102937.22;5017454;28;20039;-92
2024/01/28 05:53:53;;;;;;;14.93;5.22;;;;;;;2.48;89.07;102921.97;5017573;28;20383;-92
2024/01/28 05:56:19;;;;;;;11.10;4.95;;;;;;;2.48;90.32;102916.75;5017186;28;20117;-91
2024/01/28 05:58:44;;;;;;;12.70;4.68;;;;;;;2.54;89.22;102926.78;4999562;28;20183;-91
2024/01/28 06:01:11;;;;;;;12.90;4.85;;;;;;;2.34;89.51;102907.88;5016524;28;20112;-91
2024/01/28 06:03:36;;;;;;;13.80;5.10;;;;;;;2.36;89.60;102914.16;5016588;28;20029;-91
2024/01/28 06:06:02;;;;;;;13.30;5.03;;;;;;;2.35;90.22;102906.19;5016652;28;20141;-91
2024/01/28 06:08:29;;;;;;;11.85;4.63;;;;;;;2.28;89.59;102901.31;5016815;28;20387;-91
2024/01/28 06:10:55;;;;;;;12.20;4.85;;;;;;;2.28;89.50;102896.09;5016826;28;20081;-91
2024/01/28 06:13:21;;;;;;;13.65;5.10;;;;;;;2.07;90.00;102861.44;5016953;28;20026;-92
2024/01/28 06:15:46;;;;;;;12.55;5.00;;;;;;;2.20;90.07;102885.06;5016430;28;20037;-91
2024/01/28 06:18:11;;;;;;;11.93;5.05;;;;;;;2.12;89.75;102876.63;4999791;28;20482;-91
2024/01/28 06:20:37;;;;;;;16.23;5.45;;;;;;;2.17;90.26;102887.41;4999188;28;20037;-91
2024/01/28 06:23:03;;;;;;;13.05;4.97;;;;;;;2.17;89.93;102897.84;4998931;28;20447;-91
2024/01/28 06:25:28;;;;;;;16.15;4.70;;;;;;;2.20;89.86;102901.59;4999326;28;20487;-92
2024/01/28 06:27:54;;;;;;;14.07;4.28;;;;;;;2.14;89.76;102881.94;4998552;28;20054;-92
2024/01/28 06:30:20;;;;;;;13.43;4.90;;;;;;;2.14;89.56;102901.16;4999339;28;20367;-91
2024/01/28 06:32:45;;;;;;;13.68;5.18;;;;;;;2.15;90.65;102892.53;4999031;28;20378;-90
2024/01/28 06:35:10;;;;;;;12.90;4.65;;;;;;;1.98;89.75;102857.31;5016362;28;20068;-91
2024/01/28 06:37:36;;;;;;;14.00;5.35;;;;;;;2.13;89.38;102880.13;4998782;28;20065;-91
2024/01/28 06:40:02;;;;;;;14.55;4.97;;;;;;;2.08;89.46;102886.72;5015988;28;20117;-91
2024/01/28 06:42:29;;;;;;;10.55;4.63;;;;;;;2.02;89.97;102879.31;5016346;28;20064;-90
2024/01/28 06:44:55;;;;;;;14.50;4.82;;;;;;;1.84;89.67;102857.94;5015868;28;20038;-91
2024/01/28 06:47:20;;;;;;;14.98;4.70;;;;;;;1.86;90.04;102882.41;5016164;28;20044;-92
2024/01/28 06:49:50;;;;;;;11.60;4.75;;;;;;;1.77;90.93;102876.50;5015712;28;20034;-92
2024/01/28 06:52:15;;;;;;;12.88;4.90;;;;;;;1.68;90.33;102867.94;5015609;28;20097;-91
2024/01/28 06:54:43;;;;;;;10.23;4.63;;;;;;;1.82;91.38;102880.38;5015487;28;20060;-91
2024/01/28 06:57:08;;;;;;;15.43;5.00;;;;;;;1.85;91.38;102880.63;5015797;28;20030;-91
2024/01/28 06:59:35;;;;;;;11.98;4.65;;;;;;;1.82;91.40;102887.28;4998694;28;20471;-91
2024/01/28 07:02:00;;;;;;;11.65;4.40;;;;;;;1.78;91.36;102872.19;4997847;28;20041;-90
2024/01/28 07:04:26;;;;;;;12.02;4.32;;;;;;;1.76;91.10;102874.69;5015111;28;20038;-89
2024/01/28 07:06:51;;;;;;;13.70;4.70;;;;;;;1.69;90.92;102877.59;4997400;28;20136;-89
2024/01/28 07:09:17;;;;;;;11.68;4.85;;;;;;;1.65;91.44;102876.41;5015473;28;20042;-90
2024/01/28 07:11:43;;;;;;;9.65;4.80;;;;;;;1.65;92.06;102873.81;5017284;28;20044;-90
2024/01/28 07:14:09;;;;;;;14.60;4.40;;;;;;;1.59;92.35;102859.41;5021353;28;20030;-91
2024/01/28 07:16:35;;;;;;;9.77;4.80;;;;;;;1.77;91.83;102878.19;5037212;28;20048;-89
2024/01/28 07:19:00;;;;;;;10.65;4.80;;;;;;;1.77;92.14;102871.28;5034391;28;20105;-91
2024/01/28 07:21:26;;;;;;;11.10;4.57;;;;;;;1.70;91.02;102875.09;5002350;28;20048;-90
2024/01/28 07:23:51;;;;;;;13.45;4.75;;;;;;;1.75;91.41;102875.44;5018379;28;20034;-90
2024/01/28 07:26:17;;;;;;;12.10;4.70;;;;;;;1.64;91.15;102868.50;5017308;28;20061;-91
2024/01/28 07:28:42;;;;;;;14.75;5.70;;;;;;;1.67;91.94;102869.66;5016148;28;20026;-90
2024/01/28 07:31:09;;;;;;;12.70;5.05;;;;;;;1.75;91.30;102880.66;4981549;28;20038;-91
2024/01/28 07:33:35;;;;;;;11.88;4.63;;;;;;;1.66;91.60;102874.72;5015483;28;20034;-91
2024/01/28 07:36:00;;;;;;;9.63;4.82;;;;;;;1.67;91.86;102877.47;5015458;28;20044;-90
2024/01/28 07:38:26;;;;;;;10.70;4.40;;;;;;;1.72;92.61;102857.88;4997717;28;20054;-92
2024/01/28 07:40:52;;;;;;;12.98;4.90;;;;;;;1.81;91.57;102872.44;5014887;28;20433;-90
2024/01/28 07:43:17;;;;;;;9.98;4.95;;;;;;;1.77;91.00;102863.47;5014884;28;20474;-89
2024/01/28 07:45:43;;;;;;;8.90;4.75;;;;;;;1.65;91.57;102846.84;4997263;28;20348;-91
2024/01/28 07:48:08;;;;;;;17.85;5.25;;;;;;;1.82;92.09;102864.72;5014693;28;20036;-89
2024/01/28 07:50:34;;;;;;;11.57;5.05;;;;;;;1.84;91.97;102863.16;5015233;28;20485;-90
2024/01/28 07:52:59;;;;;;;14.63;4.93;;;;;;;1.90;92.19;102862.72;5014621;28;20041;-90
2024/01/28 07:55:25;;;;;;;12.25;4.70;;;;;;;2.02;92.05;102865.38;5015289;28;20034;-90
2024/01/28 07:57:50;;;;;;;13.60;5.22;;;;;;;2.13;91.70;102857.56;5014376;28;20104;-90
2024/01/28 08:00:16;;;;;;;12.27;5.03;;;;;;;2.24;91.71;102850.59;5014558;28;20037;-90
2024/01/28 08:02:41;;;;;;;12.88;5.60;;;;;;;2.50;90.99;102861.31;5014502;28;20474;-89
2024/01/28 08:05:07;;;;;;;10.55;5.03;;;;;;;2.68;90.35;102853.03;5014767;28;20029;-90
2024/01/28 08:07:32;;;;;;;14.48;5.30;;;;;;;2.84;89.41;102842.94;4996403;28;20072;-90
2024/01/28 08:09:58;;;;;;;14.02;5.72;;;;;;;3.03;88.66;102839.06;4996979;28;20034;-89
2024/01/28 08:12:23;;;;;;;13.60;5.50;;;;;;;3.22;87.18;102852.69;4997101;28;20038;-90
2024/01/28 08:14:48;;;;;;;13.18;5.32;;;;;;;3.40;87.58;102858.34;4996444;28;20473;-89
2024/01/28 08:17:14;;;;;;;13.98;5.45;;;;;;;3.50;85.70;102846.03;4996401;28;20061;-89
2024/01/28 08:19:40;;;;;;;10.35;5.18;;;;;;;3.76;85.73;102854.81;5014254;28;20030;-90
2024/01/28 08:22:05;;;;;;;15.43;6.07;;;;;;;3.87;84.57;102847.72;5013753;28;20120;-90
2024/01/28 08:24:31;;;;;;;15.38;5.80;;;;;;;3.91;84.37;102839.31;5014098;28;20450;-90
2024/01/28 08:26:58;;;;;;;13.40;5.30;;;;;;;3.96;84.07;102846.66;4996522;28;20100;-90
2024/01/28 08:29:24;;;;;;;15.27;5.30;;;;;;;4.04;83.89;102833.22;5014547;28;20034;-90
2024/01/28 08:31:49;;;;;;;11.00;5.15;;;;;;;4.19;83.49;102831.63;5013794;28;20060;-90
2024/01/28 08:34:15;;;;;;;11.40;5.38;;;;;;;4.36;82.12;102838.91;4996819;28;20431;-90
2024/01/28 08:36:40;;;;;;;14.18;5.90;;;;;;;4.51;81.03;102841.69;5014203;28;20030;-89
2024/01/28 08:39:05;;;;;;;13.02;5.63;;;;;;;4.67;80.65;102841.00;5013779;28;20033;-90
2024/01/28 08:41:31;;;;;;;9.52;4.90;;;;;;;4.87;81.01;102840.59;5013870;28;20065;-90
2024/01/28 08:43:57;;;;;;;17.38;5.30;;;;;;;5.03;79.51;102837.28;5014339;28;20120;-90
2024/01/28 08:46:22;;;;;;;13.27;5.68;;;;;;;5.17;79.13;102839.06;5017337;28;20026;-90
2024/01/28 08:48:47;;;;;;;13.77;4.90;;;;;;;5.16;77.74;102810.16;5032598;28;20014;-89
2024/01/28 08:51:13;;;;;;;10.60;5.10;;;;;;;5.31;77.17;102824.25;5033418;28;20061;-91
2024/01/28 08:53:38;;;;;;;10.32;4.90;;;;;;;5.50;77.32;102831.56;5018804;28;20030;-92
2024/01/28 08:56:04;;;;;;;11.40;4.80;;;;;;;5.61;76.63;102830.53;4997804;28;20065;-92
2024/01/28 08:58:30;;;;;;;10.48;5.00;;;;;;;5.59;76.09;102826.88;5014461;28;20042;-92
2024/01/28 09:00:56;;;;;;;9.32;4.50;;;;;;;5.63;76.18;102823.66;5015133;28;20025;-91
2024/01/28 09:03:21;;;;;;;10.82;4.75;;;;;;;5.67;75.27;102830.91;5018672;28;20080;-92
2024/01/28 09:05:47;;;;;;;14.38;4.82;;;;;;;5.75;74.67;102819.16;5018503;28;20048;-94
2024/01/28 09:08:13;;;;;;;11.15;4.47;;;;;;;5.87;74.90;102802.38;5000690;28;20415;-93
2024/01/28 09:10:38;;;;;;;11.50;4.57;;;;;;;6.19;74.11;102820.09;5017642;28;20033;-91
2024/01/28 09:13:04;;;;;;;9.90;4.43;;;;;;;6.42;75.11;102817.13;5018076;28;20030;-93
2024/01/28 09:15:29;;;;;;;13.15;4.95;;;;;;;6.62;73.79;102809.50;5017865;28;20037;-92
2024/01/28 09:17:55;;;;;;;11.13;4.50;;;;;;;6.78;72.22;102812.22;5017699;28;20034;-93
2024/01/28 09:20:20;;;;;;;10.35;4.70;;;;;;;6.89;71.58;102802.31;5018006;28;20030;-94
2024/01/28 09:22:46;;;;;;;10.65;4.50;;;;;;;7.10;70.90;102803.53;5017600;28;20177;-93
2024/01/28 09:25:11;;;;;;;12.05;4.22;;;;;;;7.33;69.92;102803.94;5017693;28;20466;-93
2024/01/28 09:27:37;;;;;;;12.55;4.80;;;;;;;7.51;68.86;102802.28;5017128;28;20117;-93
2024/01/28 09:30:02;;;;;;;7.47;4.25;;;;;;;7.58;67.96;102793.00;5017527;28;20105;-92
2024/01/28 09:32:28;;;;;;;11.13;4.53;;;;;;;7.80;67.61;102789.81;4999921;28;20030;-92
2024/01/28 09:34:53;;;;;;;11.10;4.38;;;;;;;8.04;67.21;102799.88;5018387;28;20045;-92
2024/01/28 09:37:19;;;;;;;11.10;4.72;;;;;;;8.32;68.54;102793.44;5018412;28;20034;-95
2024/01/28 09:39:45;;;;;;;11.07;4.38;;;;;;;8.46;66.43;102776.63;5018863;28;20037;-93
2024/01/28 09:42:16;;;;;;;9.80;3.92;;;;;;;8.92;66.97;102801.72;5019013;28;20044;-96
2024/01/28 09:44:42;;;;;;;9.07;4.15;;;;;;;9.09;64.93;102802.53;5018084;28;20038;-95
2024/01/28 09:47:08;;;;;;;9.13;4.35;;;;;;;9.27;64.05;102798.13;5018534;28;20036;-94
2024/01/28 09:49:39;;;;;;;7.35;4.13;;;;;;;9.37;62.83;102781.00;5017713;28;20038;-94
2024/01/28 09:52:12;;;;;;;9.77;4.43;;;;;;;9.45;61.74;102787.53;5000631;28;20038;-94
2024/01/28 09:54:39;;;;;;;13.75;4.65;;;;;;;9.53;61.25;102791.44;5017335;28;20034;-94
2024/01/28 09:57:06;;;;;;;10.40;4.25;;;;;;;9.42;60.45;102787.38;5016692;28;20489;-93
2024/01/28 09:59:35;;;;;;;9.70;4.00;;;;;;;9.49;61.24;102786.84;5017419;28;20029;-94
2024/01/28 10:02:03;;;;;;;9.95;4.32;;;;;;;9.27;60.09;102783.22;5017307;28;20047;-93
2024/01/28 10:04:29;;;;;;;13.95;4.55;;;;;;;9.09;61.25;102761.25;5016570;28;20038;-96
2024/01/28 10:06:57;;;;;;;11.48;4.47;;;;;;;9.04;61.28;102770.69;5016362;28;20390;-95
2024/01/28 10:09:26;;;;;;;9.18;4.43;;;;;;;8.62;60.81;102744.03;4999107;28;20124;-93
2024/01/28 10:11:52;;;;;;;14.13;4.20;;;;;;;8.93;62.07;102779.78;5017103;28;20379;-88
2024/01/28 10:14:18;;;;;;;9.23;4.05;;;;;;;8.90;61.96;102767.34;5014989;28;20037;-90
2024/01/28 10:16:47;;;;;;;11.40;4.68;;;;;;;9.07;61.73;102768.16;5016199;28;20488;-93
2024/01/28 10:19:13;;;;;;;8.65;4.05;;;;;;;9.15;61.33;102769.44;5017117;28;20061;-94
2024/01/28 10:21:38;;;;;;;11.25;4.22;;;;;;;9.06;60.79;102766.38;5022017;28;20077;-91
2024/01/28 10:24:04;;;;;;;6.65;3.65;;;;;;;8.96;60.59;102762.41;4994079;28;20034;-93
2024/01/28 10:26:30;;;;;;;9.30;4.55;;;;;;;8.95;61.06;102762.31;5023232;28;20041;-92
2024/01/28 10:28:55;;;;;;;9.25;4.15;;;;;;;8.99;61.55;102773.09;5000120;28;20065;-93
2024/01/28 10:31:23;;;;;;;9.40;4.22;;;;;;;9.16;61.49;102765.06;4982963;28;20056;-92
2024/01/28 10:33:49;;;;;;;10.35;4.60;;;;;;;9.28;60.29;102768.28;4998552;28;20065;-88
2024/01/28 10:36:19;;;;;;;10.73;4.32;;;;;;;9.37;59.83;102757.25;5015831;28;20072;-91
2024/01/28 10:38:48;;;;;;;9.65;4.60;;;;;;;9.51;61.04;102729.78;5016590;28;20038;-90
2024/01/28 10:41:18;;;;;;;12.52;5.50;;;;;;;9.71;59.73;102730.66;5016328;28;20026;-91
2024/01/28 10:44:08;;;;;;;9.95;4.95;;;;;;;10.10;59.35;102765.81;5016503;28;20033;-93
2024/01/28 10:46:38;;;;;;;10.57;5.15;;;;;;;9.92;58.31;102754.47;5016564;28;20117;-93
2024/01/28 10:49:08;;;;;;;11.23;6.13;;;;;;;9.90;58.47;102748.22;5016515;28;20105;-90
2024/01/28 10:51:36;;;;;;;12.93;7.13;;;;;;;10.12;58.79;102740.41;5016777;28;20549;-94
2024/01/28 10:54:07;;;;;;;17.23;11.27;;;;;;;10.38;58.07;102736.25;5017190;28;20058;-90
2024/01/28 10:56:33;;;;;;;20.95;12.48;;;;;;;10.59;56.86;102746.81;5016287;28;20109;-93
2024/01/28 10:58:59;;;;;;;14.57;8.80;;;;;;;10.86;57.69;102728.50;5015566;28;20026;-90
2024/01/28 11:01:26;;;;;;;10.80;6.25;;;;;;;11.21;57.53;102718.41;5015536;28;20040;-90
2024/01/28 11:03:53;;;;;;;9.18;4.97;;;;;;;11.59;56.11;102719.81;5015604;28;20045;-89
2024/01/28 11:06:19;;;;;;;12.73;4.65;;;;;;;11.63;54.68;102731.44;5016058;28;20025;-92
2024/01/28 11:08:48;;;;;;;11.30;4.80;;;;;;;11.47;54.17;102703.50;5017421;28;20030;-94
2024/01/28 11:11:14;;;;;;;10.00;4.35;;;;;;;11.91;57.14;102717.50;5001359;28;20120;-96
2024/01/28 11:13:43;;;;;;;9.20;4.18;;;;;;;11.84;52.57;102710.16;5014795;28;20049;-96
2024/01/28 11:16:11;;;;;;;11.60;4.20;;;;;;;11.94;52.99;102715.81;5003704;28;20045;-93
2024/01/28 11:18:36;;;;;;;7.70;4.20;;;;;;;11.93;53.99;102695.47;5021825;28;20030;-94
2024/01/28 11:21:12;;;;;;;10.57;4.20;;;;;;;12.26;54.15;102698.38;5024257;28;20041;-91